Indian Springs, Nevada Weather observations

Data are for observation ending at time listed.
 Day   Time    Ave.   Ave.  Ave.  Vector   Max.   Stn.    Total    Solar   Ave.  
  of    of     Air    Rel.  Wind   Wind    Wind   Baro.  Precip.   Rad.    Soil  
Year   Day     Temp.  Hum.  Speed  Dir.    Gust   Pres.                    Temp. 
2017   (PST)    F      %     mph   deg.    mph     mb.     in.     W/m2     F   
------------------------------------------------------------------------------
 326    3:10   47.3    51    1.4   229      2.8   913.6    0.00       0    55.9
 326    3:20   47.5    51    1.5   234      2.6   913.7    0.00       0    55.8
 326    3:30   48.6    50    0.6   254      2.0   913.9    0.00       0    55.7
 326    3:40   47.8    50    1.2   237      1.9   913.8    0.00       0    55.7
 326    3:50   46.7    51    0.3    94      0.9   913.8    0.00       0    55.6
 326    4:00   45.9    53    0.0     0      0.0   913.6    0.00       0    55.5
 326    4:10   46.5    53    0.9   233      2.0   914.4    0.00       0    55.4
 326    4:20   47.7    50    1.0   240      1.9   914.0    0.00       0    55.3
 326    4:30   46.8    51    0.3   236      1.1   913.8    0.00       0    55.2
 326    4:40   46.5    52    0.4   231      1.5   913.7    0.00       0    55.1
 326    4:50   46.1    53    0.1   218      0.8   913.4    0.00       0    55.0
 326    5:00   45.2    55    0.1   199      0.8   913.1    0.00       0    54.9
 326    5:10   44.7    56    0.0   160      0.1   913.1    0.00       0    54.8
 326    5:20   44.3    58    0.0     0      0.0   913.7    0.00       0    54.8
 326    5:30   44.0    60    0.0     0      0.0   912.9    0.00       0    54.7
 326    5:40   44.3    59    0.0     0      0.0   913.1    0.00       0    54.6
 326    5:50   44.9    58    0.5   272      1.5   914.0    0.00       0    54.5
 326    6:00   44.2    55    1.1   215      2.6   914.1    0.00       0    54.4
 326    6:10   44.9    56    1.5   206      3.1   914.5    0.00       0    54.3
 326    6:20   46.0    55    0.3   231      1.3   913.3    0.00       0    54.2
 326    6:30   45.1    57    0.0     0      0.0   913.7    0.00       3    54.2
 326    6:40   45.1    58    0.0     0      0.0   914.7    0.00       8    54.1
 326    6:50   45.7    56    0.6   230      2.3   913.8    0.00      19    54.0
 326    7:00   46.4    55    0.7   319      2.2   914.2    0.00      21    53.9
 326    7:10   46.5    54    0.3    45      1.6   914.7    0.00      34    53.8
 326    7:20   46.2    55    0.2    90      1.2   914.9    0.00      40    53.7
 326    7:30   46.1    52    1.4   244      2.9   914.8    0.00      40    53.7
 326    7:40   47.4    52    2.0   231      3.0   915.2    0.00      82    53.6
 326    7:50   49.9    49    2.4   239      3.7   914.7    0.00     108    53.6
 326    8:00   51.5    46    1.8   233      2.9   915.4    0.00     263    53.5
 326    8:10   54.4    44    0.3   283      1.9   915.9    0.00     293    53.4
 326    8:20   55.7    42    1.3   302      3.0   916.0    0.00     324    53.4
 326    8:30   56.6    40    0.9   352      2.0   917.1    0.00     356    53.3
 326    8:40   56.9    39    0.9   337      2.3   916.9    0.00     354    53.3
 326    8:50   56.7    40    1.4   304      3.2   916.8    0.00     195    53.4
 326    9:00   57.8    38    1.4   306      2.8   917.3    0.00     403    53.4
 326    9:10   58.9    37    1.5   318      3.1   917.6    0.00     268    53.5
 326    9:20   59.1    36    1.2     1      2.8   918.1    0.00     213    53.7
 326    9:30   59.2    36    1.3   321      2.6   918.4    0.00     129    53.9
 326    9:40   59.9    36    0.7   347      1.9   917.9    0.00     110    54.1
 326    9:50   61.6    34    0.5    19      1.9   918.1    0.00     102    54.3
 326   10:00   62.4    33    1.0    34      2.6   917.8    0.00      65    54.6
 326   10:10   63.4    32    1.2    22      3.5   918.0    0.00      40    54.8
 326   10:20   64.1    31    1.3    18      2.9   916.8    0.00      78    55.1
 326   10:30   64.4    31    0.8    25      2.4   918.2    0.00     182    55.4
 326   10:40   65.5    30    1.0   342      3.5   917.9    0.00     124    55.7
 326   10:50   66.3    30    1.1   277      2.8   917.3    0.00     126    56.0
 326   11:00   67.3    29    1.7   316      3.6   917.1    0.00     120    56.2
 326   11:10   69.0    27    0.8   354      3.1   916.8    0.00     226    56.4
 326   11:20   70.0    26    0.6     8      2.4   916.6    0.00     503    56.7
 326   11:30   71.2    25    0.3    34      1.2   916.5    0.00     647    56.9
 326   11:40   72.4    25    0.4   291      1.5   917.3    0.00     650    57.1
 326   11:50   74.2    24    0.8   186      2.6   917.3    0.00     635    57.3
 326   12:00   74.9    23    0.7   194      2.1   918.4    0.00     628    57.6
 326   12:10   75.8    23    1.1   218      2.6   917.4    0.00     614    57.8
 326   12:20   76.6    22    0.9   180      2.9   917.7    0.00     604    58.1
 326   12:30   76.3    22    1.2   263      2.6   917.6    0.00     615    58.4
 326   12:40   77.2    22    1.3   232      3.2   918.8    0.00     581    58.8
 326   12:50   76.9    22    1.2   253      3.7   918.1    0.00     581    59.2
 326   13:00   78.1    21    1.1   167      3.8   917.2    0.00     568    59.6
 326   13:10   77.0    22    1.1   224      3.5   918.2    0.00     173    60.1
 326   13:20   78.8    21    0.7   294      2.2   916.7    0.00     521    60.5
 326   13:30   78.7    21    1.5   224      4.2   916.6    0.00     487    61.0
 326   13:40   78.4    21    1.6    11      4.1   915.9    0.00     479    61.4
 326   13:50   78.2    21    2.0     4      5.1   915.8    0.00     475    61.8
 326   14:00   78.4    21    1.9    15      4.3   916.4    0.00     449    62.2
 326   14:10   78.5    21    2.3    30      4.7   915.7    0.00     421    62.6
 326   14:20   79.0    21    1.7    15      4.3   916.2    0.00     396    63.0
 326   14:30   78.8    21    1.3     7      3.4   916.1    0.00     370    63.3
 326   14:40   79.3    20    1.2    10      3.1   915.6    0.00     340    63.6
 326   14:50   79.2    20    1.0   360      3.1   915.8    0.00     313    64.0
 326   15:00   78.8    20    1.2    16      2.9   915.4    0.00     280    64.2
 326   15:10   79.4    20    0.8    15      2.1   915.5    0.00     248    64.5
 326   15:20   80.0    20    0.6    16      2.1   915.1    0.00     218    64.7
 326   15:30   79.4    20    0.6    15      1.8   915.4    0.00     190    64.9
 326   15:40   78.7    22    0.0     0      0.0   915.2    0.00     155    65.1
 326   15:50   76.7    23    0.0     0      0.0   915.1    0.00      67    65.3
 326   16:00   75.6    24    0.0     0      0.0   914.4    0.00      21    65.4
 326   16:10   74.8    25    0.0     0      0.0   914.8    0.00      17    65.5
 326   16:20   73.4    26    0.0     0      0.0   914.6    0.00      12    65.5
 326   16:30   70.9    28    0.0     0      0.0   914.2    0.00       7    65.5
 326   16:40   68.8    30    0.1   234      0.9   914.0    0.00       2    65.5
 326   16:50   67.4    29    1.0   230      1.6   913.5    0.00       0    65.5
 326   17:00   66.9    29    1.3   239      2.0   913.5    0.00       0    65.4
 326   17:10   67.1    29    1.7   239      2.5   913.6    0.00       0    65.3
 326   17:20   66.6    29    1.8   239      2.5   913.3    0.00       0    65.2
 326   17:30   65.3    30    2.3   240      3.7   913.7    0.00       0    65.1
 326   17:40   64.4    30    2.3   234      3.4   913.8    0.00       0    64.9
 326   17:50   63.9    31    2.3   235      3.6   914.0    0.00       0    64.8
 326   18:00   63.9    31    2.2   230      3.3   913.8    0.00       0    64.7
 326   18:10   63.6    32    0.5   344      1.8   913.8    0.00       0    64.5
 326   18:20   61.5    34    0.2     1      2.1   913.9    0.00       0    64.3
 326   18:30   60.3    35    0.1   105      0.9   913.8    0.00       0    64.2
 326   18:40   59.5    36    0.0     0      0.0   913.8    0.00       0    64.1
 326   18:50   59.3    37    0.0   141      0.7   913.4    0.00       0    63.9
 326   19:00   59.5    37    0.2   141      1.2   915.0    0.00       0    63.8
 326   19:10   58.7    38    1.1   106      2.9   913.4    0.00       0    63.6
 326   19:20   57.6    40    0.1   122      0.9   913.4    0.00       0    63.4
 326   19:30   57.6    40    0.2   335      1.2   913.5    0.00       0    63.2
 326   19:40   58.7    38    0.9   296      2.3   912.3    0.00       0    63.1
 326   19:50   58.1    37    1.6   241      3.1   913.4    0.00       0    62.9
 326   20:00   58.3    37    1.4   246      2.7   913.3    0.00       0    62.7
 326   20:10   58.1    37    2.5   241      4.5   913.3    0.00       0    62.6
 326   20:20   58.3    37    2.1   241      4.0   913.6    0.00       0    62.4
 326   20:30   56.7    38    2.9   234      4.8   913.6    0.00       0    62.3
 326   20:40   56.3    39    1.0   230      2.9   913.4    0.00       0    62.1
 326   20:50   55.7    41    0.1    56      0.8   913.3    0.00       0    62.0
 326   21:00   54.5    43    0.1     5      1.1   913.2    0.00       0    61.9
 326   21:10   54.3    44    0.1     1      0.9   913.4    0.00       0    61.7
 326   21:20   54.0    44    0.0     1      0.7   913.0    0.00       0    61.6
 326   21:30   53.7    45    0.0    11      0.4   913.5    0.00       0    61.4
 326   21:40   53.4    45    0.0     0      0.0   913.4    0.00       0    61.3
 326   21:50   53.9    44    0.9   251      2.2   913.2    0.00       0    61.1
 326   22:00   53.4    42    1.5   237      2.6   913.0    0.00       0    61.0
 326   22:10   53.3    42    1.6   228      2.3   913.3    0.00       0    60.8
 326   22:20   52.5    43    0.2   224      1.2   913.2    0.00       0    60.7
 326   22:30   51.9    46    0.0   178      0.9   912.6    0.00       0    60.6
 326   22:40   52.2    45    0.1   198      1.2   913.0    0.00       0    60.4
 326   22:50   51.8    46    0.0   199      0.6   913.3    0.00       0    60.3
 326   23:00   51.2    47    0.0   198      0.1   913.5    0.00       0    60.2
 326   23:10   51.2    46    0.1   166      1.0   913.2    0.00       0    60.0
 326   23:20   50.7    48    0.0     0      0.0   913.5    0.00       0    59.9
 326   23:30   50.5    48    0.0     0      0.0   913.0    0.00       0    59.7
 326   23:40   50.3    50    0.0     0      0.0   913.0    0.00       0    59.6
 326   23:50   50.0    48    0.0     0      0.0   912.9    0.00       0    59.5
 327    0:00   49.8    49    0.0     0      0.0   912.8    0.00       0    59.4
 327    0:10   49.5    50    0.0     0      0.0   912.4    0.00       0    59.2
 327    0:20   50.3    48    0.3   117      1.5   912.5    0.00       0    59.1
 327    0:30   51.0    45    0.6   323      2.6   912.7    0.00       0    59.0
 327    0:40   50.9    44    1.4   242      2.4   912.6    0.00       0    58.9
 327    0:50   50.8    44    0.7   209      1.7   912.5    0.00       0    58.7
 327    1:00   50.3    45    0.0   206      0.8   913.2    0.00       0    58.6
 327    1:10   50.3    45    0.5   217      1.3   912.5    0.00       0    58.5
 327    1:20   50.2    45    0.2   202      1.5   912.5    0.00       0    58.4
 327    1:30   49.7    46    0.0     0      0.0   912.9    0.00       0    58.3
 327    1:40   49.0    48    0.0     0      0.0   912.4    0.00       0    58.2
 327    1:50   49.4    46    0.8   240      1.8   912.8    0.00       0    58.2
 327    2:00   49.3    45    0.9   237      1.8   912.3    0.00       0    58.0
 327    2:10   48.9    46    0.4   236      1.3   912.9    0.00       0    57.9
 327    2:20   49.0    46    0.8   251      2.9   912.4    0.00       0    57.8
 327    2:30   48.2    46    0.0   206      0.7   912.0    0.00       0    57.7
 327    2:40   47.3    49    0.2    49      1.2   912.7    0.00       0    57.6
 327    2:50   46.9    51    0.1   148      0.6   912.4    0.00       0    57.5
 327    3:00   46.5    52    0.0   291      0.7   912.5    0.00       0    57.4

Return to Indian Springs, Nevada graphs page.


Western Regional Climate Center,wrcc@dri.edu